createdAt,value
2022-11-09T00:00:08.217Z,15.20
2022-11-09T00:02:35.017Z,15.10
2022-11-09T00:05:02.539Z,15.10
2022-11-09T00:07:31.766Z,15.10
2022-11-09T00:09:58.723Z,15.20
2022-11-09T00:12:25.597Z,15.20
2022-11-09T00:14:52.527Z,15.10
2022-11-09T00:17:19.316Z,15.00
2022-11-09T00:19:46.307Z,15.00
2022-11-09T00:22:13.297Z,14.80
2022-11-09T00:24:40.559Z,14.90
2022-11-09T00:27:07.895Z,14.90
2022-11-09T00:29:35.029Z,14.90
2022-11-09T00:32:02.036Z,14.70
2022-11-09T00:34:28.978Z,14.80
2022-11-09T00:36:56.195Z,14.70
2022-11-09T00:39:24.013Z,14.70
2022-11-09T00:41:51.094Z,14.80
2022-11-09T00:44:18.011Z,14.70
2022-11-09T00:46:45.060Z,14.80
2022-11-09T00:49:12.001Z,14.90
2022-11-09T00:51:39.086Z,14.90
2022-11-09T00:54:08.080Z,14.90
2022-11-09T00:56:34.884Z,15.00
2022-11-09T00:59:01.662Z,15.00
2022-11-09T01:01:28.510Z,15.00
2022-11-09T01:03:55.343Z,15.00
2022-11-09T01:06:25.101Z,14.80
2022-11-09T01:08:52.991Z,14.70
2022-11-09T01:11:22.228Z,14.70
2022-11-09T01:13:49.586Z,14.80
2022-11-09T01:16:20.015Z,14.90
2022-11-09T01:18:47.366Z,14.80
2022-11-09T01:21:15.596Z,14.70
2022-11-09T01:23:44.265Z,14.80
2022-11-09T01:26:15.920Z,14.70
2022-11-09T01:28:43.609Z,14.80
2022-11-09T01:31:13.565Z,14.60
2022-11-09T01:33:40.777Z,14.60
2022-11-09T01:36:10.225Z,14.70
2022-11-09T01:38:38.004Z,14.70
2022-11-09T01:41:12.197Z,14.70
2022-11-09T01:43:39.066Z,14.70
2022-11-09T01:46:12.287Z,14.70
2022-11-09T01:48:49.717Z,14.60
2022-11-09T01:51:28.858Z,14.70
2022-11-09T01:54:13.282Z,14.80
2022-11-09T01:56:40.803Z,14.60
2022-11-09T01:59:13.981Z,14.60
2022-11-09T02:01:42.902Z,14.60
2022-11-09T02:04:24.949Z,14.60
2022-11-09T02:06:54.496Z,14.60
2022-11-09T02:09:39.457Z,14.60
2022-11-09T02:12:07.937Z,14.50
2022-11-09T02:14:36.910Z,14.60
2022-11-09T02:17:04.179Z,14.50
2022-11-09T02:19:31.359Z,14.60
2022-11-09T02:21:58.293Z,14.60
2022-11-09T02:24:25.867Z,14.50
2022-11-09T02:26:54.204Z,14.40
2022-11-09T02:29:28.209Z,14.50
2022-11-09T02:31:59.981Z,14.40
2022-11-09T02:34:26.958Z,14.20
2022-11-09T02:36:53.974Z,14.30
2022-11-09T02:39:26.092Z,14.10
2022-11-09T02:42:03.627Z,14.10
2022-11-09T02:44:35.870Z,14.00
2022-11-09T02:47:02.871Z,14.10
2022-11-09T02:49:29.677Z,14.20
2022-11-09T02:51:56.653Z,14.30
2022-11-09T02:54:23.786Z,14.30
2022-11-09T02:56:50.815Z,14.30
2022-11-09T02:59:17.845Z,14.20
2022-11-09T03:01:44.855Z,14.30
2022-11-09T03:04:11.907Z,14.30
2022-11-09T03:06:39.223Z,14.00
2022-11-09T03:09:09.990Z,14.00
2022-11-09T03:11:37.679Z,14.10
2022-11-09T03:14:05.243Z,14.00
2022-11-09T03:16:32.457Z,14.20
2022-11-09T03:18:59.477Z,14.20
2022-11-09T03:21:26.900Z,14.10
2022-11-09T03:23:54.797Z,14.10
2022-11-09T03:26:22.389Z,14.10
2022-11-09T03:28:49.605Z,14.10
2022-11-09T03:31:16.783Z,14.00
2022-11-09T03:33:43.992Z,14.00
2022-11-09T03:36:11.634Z,13.90
2022-11-09T03:38:38.389Z,14.00
2022-11-09T03:41:05.368Z,14.00
2022-11-09T03:43:32.957Z,14.10
2022-11-09T03:45:59.825Z,14.00
2022-11-09T03:48:26.643Z,13.90
2022-11-09T03:50:53.468Z,14.00
2022-11-09T03:53:20.686Z,13.90
2022-11-09T03:55:48.090Z,13.90
2022-11-09T03:58:14.969Z,13.80
2022-11-09T04:00:42.660Z,13.90
2022-11-09T04:03:09.566Z,14.00
2022-11-09T04:05:36.452Z,13.90
2022-11-09T04:08:03.783Z,13.80
2022-11-09T04:10:31.133Z,14.00
2022-11-09T04:12:58.517Z,13.90
2022-11-09T04:15:25.757Z,14.00
2022-11-09T04:18:01.050Z,14.00
2022-11-09T04:20:30.194Z,14.00
2022-11-09T04:22:59.084Z,13.90
2022-11-09T04:25:27.487Z,13.80
2022-11-09T04:27:58.831Z,13.90
2022-11-09T04:30:30.036Z,13.80
2022-11-09T04:32:58.308Z,13.80
2022-11-09T04:35:26.682Z,13.70
2022-11-09T04:38:05.242Z,13.70
2022-11-09T04:40:34.125Z,13.70
2022-11-09T04:43:05.784Z,13.60
2022-11-09T04:45:34.323Z,13.60
2022-11-09T04:48:03.211Z,13.50
2022-11-09T04:50:30.782Z,13.50
2022-11-09T04:53:09.927Z,13.50
2022-11-09T04:55:37.055Z,13.60
2022-11-09T04:58:04.364Z,13.40
2022-11-09T05:00:31.711Z,13.60
2022-11-09T05:03:02.635Z,13.60
2022-11-09T05:05:29.786Z,13.60
2022-11-09T05:07:56.965Z,13.60
2022-11-09T05:10:23.854Z,13.60
2022-11-09T05:12:50.935Z,13.50
2022-11-09T05:15:17.704Z,13.50
2022-11-09T05:17:44.647Z,13.50
2022-11-09T05:20:11.976Z,13.50
2022-11-09T05:23:01.191Z,13.40
2022-11-09T05:25:28.151Z,13.40
2022-11-09T05:27:55.430Z,13.40
2022-11-09T05:30:22.954Z,13.30
2022-11-09T05:32:49.761Z,13.40
2022-11-09T05:35:16.616Z,13.30
2022-11-09T05:37:47.470Z,13.40
2022-11-09T05:40:14.997Z,13.30
2022-11-09T05:42:42.225Z,13.30
2022-11-09T05:45:40.110Z,13.30
2022-11-09T05:47:58.300Z,13.20
2022-11-09T05:50:25.278Z,13.30
2022-11-09T05:52:53.039Z,13.20
2022-11-09T05:55:19.950Z,13.20
2022-11-09T05:57:46.937Z,13.10
2022-11-09T06:00:14.456Z,13.20
2022-11-09T06:02:41.862Z,13.20
2022-11-09T06:05:12.816Z,13.30
2022-11-09T06:07:39.763Z,13.20
2022-11-09T06:10:07.574Z,13.20
2022-11-09T06:12:34.925Z,13.20
2022-11-09T06:15:01.744Z,13.20
2022-11-09T06:17:28.750Z,13.20
2022-11-09T06:19:56.034Z,13.10
2022-11-09T06:22:23.389Z,13.10
2022-11-09T06:24:50.308Z,13.20
2022-11-09T06:27:17.447Z,13.10
2022-11-09T06:29:44.569Z,13.10
2022-11-09T06:32:11.801Z,13.00
2022-11-09T06:34:38.983Z,12.90
2022-11-09T06:37:05.908Z,13.00
2022-11-09T06:39:32.640Z,13.10
2022-11-09T06:41:59.521Z,13.10
2022-11-09T06:44:26.297Z,13.10
2022-11-09T06:46:53.129Z,13.10
2022-11-09T06:49:19.898Z,13.10
2022-11-09T06:51:47.262Z,13.00
2022-11-09T06:54:14.320Z,13.00
2022-11-09T06:56:41.118Z,13.10
2022-11-09T06:59:08.894Z,13.20
2022-11-09T07:01:37.618Z,13.00
2022-11-09T07:04:04.691Z,12.80
2022-11-09T07:06:31.833Z,12.90
2022-11-09T07:08:58.763Z,12.80
2022-11-09T07:11:25.653Z,12.90
2022-11-09T07:13:57.032Z,12.90
2022-11-09T07:16:24.802Z,12.90
2022-11-09T07:18:51.545Z,13.00
2022-11-09T07:21:18.490Z,12.90
2022-11-09T07:23:48.749Z,13.00
2022-11-09T07:26:16.578Z,13.20
2022-11-09T07:28:43.992Z,13.10
2022-11-09T07:31:11.267Z,13.20
2022-11-09T07:33:38.402Z,13.10
2022-11-09T07:36:06.372Z,13.10
2022-11-09T07:38:33.784Z,13.10
2022-11-09T07:41:04.343Z,13.20
2022-11-09T07:43:32.458Z,13.10
2022-11-09T07:46:02.741Z,13.20
2022-11-09T07:48:30.147Z,13.20
2022-11-09T07:50:57.463Z,13.20
2022-11-09T07:53:24.399Z,13.30
2022-11-09T07:55:58.971Z,13.20
2022-11-09T07:58:26.038Z,13.10
2022-11-09T08:00:53.030Z,13.10
2022-11-09T08:03:24.556Z,13.10
2022-11-09T08:05:51.905Z,13.10
2022-11-09T08:08:18.760Z,13.20
2022-11-09T08:10:51.404Z,13.30
2022-11-09T08:13:19.962Z,13.30
2022-11-09T08:15:47.947Z,13.40
2022-11-09T08:18:18.266Z,13.40
2022-11-09T08:20:46.616Z,13.30
2022-11-09T08:23:16.106Z,13.40
2022-11-09T08:25:43.882Z,13.50
2022-11-09T08:28:14.697Z,13.50
2022-11-09T08:30:45.721Z,13.50
2022-11-09T08:33:13.531Z,13.50
2022-11-09T08:35:41.004Z,13.60
2022-11-09T08:38:07.877Z,13.70
2022-11-09T08:40:35.079Z,13.70
2022-11-09T08:43:07.230Z,13.60
2022-11-09T08:45:36.836Z,13.70
2022-11-09T08:48:04.494Z,13.60
2022-11-09T08:50:33.195Z,13.50
2022-11-09T08:53:01.595Z,13.50
2022-11-09T08:55:28.795Z,13.60
2022-11-09T08:57:57.763Z,13.50
2022-11-09T09:00:25.455Z,13.60
2022-11-09T09:02:52.697Z,13.60
2022-11-09T09:05:21.567Z,13.70
2022-11-09T09:07:48.839Z,13.80
2022-11-09T09:10:16.116Z,13.90
2022-11-09T09:12:43.890Z,14.00
2022-11-09T09:15:11.186Z,14.00
2022-11-09T09:17:38.051Z,14.10
2022-11-09T09:20:05.988Z,14.00
2022-11-09T09:22:34.086Z,14.10
2022-11-09T09:25:01.115Z,14.20
2022-11-09T09:27:29.777Z,14.40
2022-11-09T09:29:57.025Z,14.40
2022-11-09T09:32:23.876Z,14.50
2022-11-09T09:34:50.713Z,14.60
2022-11-09T09:37:18.991Z,14.60
2022-11-09T09:39:46.022Z,14.60
2022-11-09T09:42:19.448Z,14.90
2022-11-09T09:44:46.661Z,15.00
2022-11-09T09:47:19.974Z,14.70
2022-11-09T09:49:53.252Z,14.60
2022-11-09T09:53:04.623Z,14.70
2022-11-09T09:55:40.407Z,14.80
2022-11-09T09:58:12.234Z,14.70
2022-11-09T10:00:42.645Z,14.50
2022-11-09T10:03:21.075Z,14.50
2022-11-09T10:06:24.996Z,14.50
2022-11-09T10:09:22.646Z,14.70
2022-11-09T10:12:08.496Z,14.70
2022-11-09T10:15:10.675Z,14.60
2022-11-09T10:17:51.915Z,14.70
2022-11-09T10:20:52.933Z,14.70
2022-11-09T10:23:53.430Z,14.50
2022-11-09T10:26:35.735Z,14.20
2022-11-09T10:29:16.933Z,14.30
2022-11-09T10:31:47.039Z,14.10
2022-11-09T10:34:56.472Z,14.10
2022-11-09T10:37:27.793Z,14.10
2022-11-09T10:40:13.650Z,14.10
2022-11-09T10:43:00.422Z,14.20
2022-11-09T10:45:34.820Z,14.20
2022-11-09T10:48:02.514Z,14.50
2022-11-09T10:50:52.656Z,14.70
2022-11-09T10:53:23.722Z,14.50
2022-11-09T10:56:20.211Z,14.30
2022-11-09T10:58:53.840Z,14.10
2022-11-09T11:01:25.657Z,14.10
2022-11-09T11:03:54.747Z,14.20
2022-11-09T11:06:21.738Z,14.00
2022-11-09T11:08:58.848Z,13.70
2022-11-09T11:11:35.184Z,13.70
2022-11-09T11:14:11.794Z,13.80
2022-11-09T11:16:40.446Z,13.70
2022-11-09T11:19:26.106Z,13.80
2022-11-09T11:22:23.388Z,13.90
2022-11-09T11:25:11.831Z,13.90
2022-11-09T11:27:52.157Z,13.80
2022-11-09T11:30:34.002Z,13.70
2022-11-09T11:33:01.101Z,13.70
2022-11-09T11:35:52.011Z,13.80
2022-11-09T11:38:35.919Z,13.80
2022-11-09T11:41:37.008Z,14.20
2022-11-09T11:44:19.334Z,14.70
2022-11-09T11:47:08.887Z,15.30
2022-11-09T11:50:05.162Z,15.20
2022-11-09T11:53:12.981Z,15.00
2022-11-09T11:55:47.985Z,15.10
2022-11-09T11:58:35.376Z,15.20
2022-11-09T12:01:17.775Z,15.50
2022-11-09T12:04:07.119Z,15.40
2022-11-09T12:06:44.255Z,15.20
2022-11-09T12:09:37.333Z,15.00
2022-11-09T12:12:17.191Z,14.90
2022-11-09T12:15:02.700Z,14.90
2022-11-09T12:17:56.008Z,14.70
2022-11-09T12:20:38.811Z,15.10
2022-11-09T12:23:40.171Z,15.70
2022-11-09T12:26:30.275Z,16.00
2022-11-09T12:29:19.993Z,16.10
2022-11-09T12:32:02.784Z,15.90
2022-11-09T12:34:37.302Z,15.80
2022-11-09T12:37:13.817Z,15.50
2022-11-09T12:39:40.721Z,15.30
2022-11-09T12:42:24.393Z,15.10
2022-11-09T12:45:22.793Z,15.20
2022-11-09T12:47:50.008Z,15.30
2022-11-09T12:50:21.719Z,15.80
2022-11-09T12:52:52.325Z,16.30
2022-11-09T12:55:24.205Z,16.30
2022-11-09T12:57:51.257Z,16.40
2022-11-09T13:00:36.683Z,16.60
2022-11-09T13:03:07.047Z,16.70
2022-11-09T13:05:38.449Z,16.90
2022-11-09T13:08:08.856Z,16.60
2022-11-09T13:10:38.264Z,16.50
2022-11-09T13:13:07.989Z,16.40
2022-11-09T13:15:35.741Z,16.50
2022-11-09T13:18:05.065Z,16.10
2022-11-09T13:26:36.985Z,15.50
2022-11-09T13:29:14.977Z,15.40
2022-11-09T13:32:13.150Z,15.10
2022-11-09T13:34:49.272Z,14.80
2022-11-09T13:37:41.192Z,14.90
2022-11-09T13:40:33.186Z,14.70
2022-11-09T13:43:14.005Z,14.80
2022-11-09T13:45:49.452Z,14.90
2022-11-09T13:48:38.381Z,15.20
2022-11-09T13:51:17.920Z,15.30
2022-11-09T13:54:23.380Z,15.30
2022-11-09T13:56:51.328Z,15.30
2022-11-09T13:59:28.270Z,14.80
2022-11-09T14:01:57.416Z,14.50
2022-11-09T14:04:28.800Z,14.40
2022-11-09T14:07:25.322Z,14.40
2022-11-09T14:10:12.786Z,14.10
2022-11-09T14:12:47.718Z,14.00
2022-11-09T14:22:56.864Z,13.90
2022-11-09T14:25:26.716Z,14.20
2022-11-09T14:27:59.143Z,14.50
2022-11-09T14:30:31.312Z,14.90
2022-11-09T14:32:59.296Z,15.20
2022-11-09T14:35:26.492Z,15.20
2022-11-09T14:37:55.460Z,15.50
2022-11-09T14:40:29.387Z,15.70
2022-11-09T14:43:19.187Z,15.70
2022-11-09T14:53:36.193Z,15.50
2022-11-09T14:56:05.883Z,15.20
2022-11-09T14:58:36.086Z,15.40
2022-11-09T15:01:27.223Z,15.40
2022-11-09T15:04:14.485Z,15.10
2022-11-09T15:15:12.151Z,14.90
2022-11-09T15:17:45.811Z,14.90
2022-11-09T15:20:13.544Z,14.80
2022-11-09T15:22:40.476Z,14.80
2022-11-09T15:25:52.337Z,14.70
2022-11-09T15:28:25.643Z,14.80
2022-11-09T15:38:41.304Z,14.60
2022-11-09T15:41:19.944Z,14.60
2022-11-09T15:43:47.025Z,14.70
2022-11-09T15:46:19.163Z,14.60
2022-11-09T15:48:46.616Z,14.80
2022-11-09T15:51:15.444Z,14.80
2022-11-09T15:53:42.914Z,14.90
2022-11-09T15:56:19.990Z,15.00
2022-11-09T15:58:49.251Z,14.90
2022-11-09T16:01:17.221Z,14.60
2022-11-09T16:03:45.036Z,14.60
2022-11-09T16:06:18.125Z,14.60
2022-11-09T16:08:49.615Z,14.50
2022-11-09T16:11:23.054Z,14.40
2022-11-09T16:13:53.142Z,14.30
2022-11-09T16:16:20.480Z,14.20
2022-11-09T16:18:47.327Z,14.20
2022-11-09T16:26:42.499Z,14.20
2022-11-09T16:29:10.516Z,14.10
2022-11-09T16:31:53.032Z,13.90
2022-11-09T16:34:20.583Z,13.90
2022-11-09T16:36:53.824Z,13.90
2022-11-09T16:39:25.945Z,14.00
2022-11-09T16:41:53.435Z,14.00
2022-11-09T16:44:23.730Z,13.90
2022-11-09T16:46:52.181Z,13.90
2022-11-09T16:56:53.928Z,13.70
2022-11-09T16:59:21.527Z,13.70
2022-11-09T17:01:57.731Z,13.80
2022-11-09T17:04:25.356Z,13.90
2022-11-09T17:14:35.034Z,13.70
2022-11-09T17:17:02.058Z,13.70
2022-11-09T17:19:33.711Z,13.80
2022-11-09T17:22:01.402Z,13.70
2022-11-09T17:24:28.649Z,13.70
2022-11-09T17:26:58.616Z,13.80
2022-11-09T17:29:25.586Z,13.90
2022-11-09T17:31:53.424Z,13.80
2022-11-09T17:34:20.191Z,13.70
2022-11-09T17:37:03.725Z,13.60
2022-11-09T17:39:31.536Z,13.70
2022-11-09T17:41:58.413Z,13.70
2022-11-09T17:44:25.317Z,13.40
2022-11-09T17:46:52.216Z,13.60
2022-11-09T17:49:19.722Z,13.60
2022-11-09T17:51:46.940Z,13.60
2022-11-09T17:54:15.144Z,13.70
2022-11-09T17:56:42.316Z,13.70
2022-11-09T17:59:09.460Z,13.60
2022-11-09T18:01:41.529Z,13.30
2022-11-09T18:04:11.251Z,13.00
2022-11-09T18:06:38.513Z,13.20
2022-11-09T18:11:53.157Z,13.40
2022-11-09T18:14:20.479Z,13.20
2022-11-09T18:16:47.682Z,13.30
2022-11-09T18:19:14.510Z,13.10
2022-11-09T18:21:41.674Z,13.10
2022-11-09T18:24:09.338Z,13.20
2022-11-09T18:26:37.458Z,13.10
2022-11-09T18:29:04.437Z,13.10
2022-11-09T18:31:31.365Z,13.10
2022-11-09T18:33:58.146Z,13.00
2022-11-09T18:36:26.211Z,13.00
2022-11-09T18:38:55.823Z,13.00
2022-11-09T18:41:24.441Z,13.10
2022-11-09T18:43:53.897Z,13.20
2022-11-09T18:46:22.428Z,13.20
2022-11-09T18:48:53.862Z,13.10
2022-11-09T18:51:21.049Z,12.90
2022-11-09T18:53:48.835Z,13.00
2022-11-09T18:56:21.641Z,12.90
2022-11-09T19:06:38.976Z,13.00
2022-11-09T19:09:29.200Z,12.70
2022-11-09T19:12:03.013Z,12.80
2022-11-09T19:14:30.651Z,12.70
2022-11-09T19:16:58.220Z,12.70
2022-11-09T19:19:27.100Z,12.90
2022-11-09T19:29:37.549Z,12.90
2022-11-09T19:32:04.724Z,12.70
2022-11-09T19:34:31.877Z,12.70
2022-11-09T19:36:59.164Z,12.80
2022-11-09T19:39:30.967Z,12.70
2022-11-09T19:42:00.570Z,12.90
2022-11-09T19:44:27.669Z,12.90
2022-11-09T19:46:54.939Z,13.10
2022-11-09T19:49:21.987Z,13.20
2022-11-09T19:51:48.955Z,12.90
2022-11-09T19:59:06.817Z,12.70
2022-11-09T20:01:34.268Z,12.70
2022-11-09T20:04:06.406Z,12.80
2022-11-09T20:06:38.549Z,12.80
2022-11-09T20:09:05.896Z,12.70
2022-11-09T20:11:51.362Z,12.90
2022-11-09T20:14:18.722Z,12.80
2022-11-09T20:16:48.577Z,12.70
2022-11-09T20:19:16.095Z,12.50
2022-11-09T20:21:44.815Z,12.50
2022-11-09T20:24:12.551Z,12.40
2022-11-09T20:26:41.575Z,12.50
2022-11-09T20:29:08.754Z,12.70
2022-11-09T20:31:37.750Z,12.60
2022-11-09T20:34:04.608Z,12.60
2022-11-09T20:36:31.671Z,12.60
2022-11-09T20:39:00.510Z,12.60
2022-11-09T20:41:28.215Z,12.60
2022-11-09T20:43:55.216Z,12.50
2022-11-09T20:46:30.007Z,12.60
2022-11-09T20:49:01.800Z,12.70
2022-11-09T20:51:29.448Z,12.70
2022-11-09T20:53:56.255Z,12.70
2022-11-09T20:56:23.281Z,12.70
2022-11-09T20:58:50.635Z,12.50
2022-11-09T21:01:20.460Z,12.50
2022-11-09T21:03:49.160Z,12.40
2022-11-09T21:06:16.213Z,12.30
2022-11-09T21:16:42.096Z,12.50
2022-11-09T21:19:08.975Z,12.60
2022-11-09T21:30:02.507Z,12.40
2022-11-09T21:32:30.758Z,12.40
2022-11-09T21:34:57.613Z,12.20
2022-11-09T21:37:24.425Z,12.30
2022-11-09T21:39:51.206Z,12.30
2022-11-09T21:42:18.147Z,12.20
2022-11-09T21:44:45.225Z,12.20
2022-11-09T21:47:12.060Z,12.30
2022-11-09T21:49:38.836Z,12.20
2022-11-09T21:52:06.684Z,12.40
2022-11-09T21:54:33.573Z,12.30
2022-11-09T21:57:00.380Z,12.10
2022-11-09T21:59:27.632Z,12.00
2022-11-09T22:05:51.095Z,12.30
2022-11-09T22:08:18.270Z,11.90
2022-11-09T22:10:45.689Z,11.70
2022-11-09T22:13:33.134Z,11.80
2022-11-09T22:16:06.609Z,11.80
2022-11-09T22:18:53.637Z,11.60
2022-11-09T22:21:22.806Z,11.80
2022-11-09T22:23:50.521Z,12.10
2022-11-09T22:26:18.030Z,12.10
2022-11-09T22:28:45.755Z,12.10
2022-11-09T22:31:13.592Z,11.90
2022-11-09T22:33:40.639Z,12.10
2022-11-09T22:36:10.207Z,12.10
2022-11-09T22:38:37.158Z,11.90
2022-11-09T22:41:06.431Z,12.00
2022-11-09T22:43:38.569Z,12.00
2022-11-09T22:46:13.703Z,11.70
2022-11-09T22:48:42.160Z,11.70
2022-11-09T22:51:11.978Z,11.80
2022-11-09T22:53:39.191Z,12.00
2022-11-09T22:56:07.016Z,12.10
2022-11-09T22:58:33.879Z,12.10
2022-11-09T23:01:10.870Z,12.10
2022-11-09T23:03:38.326Z,12.10
2022-11-09T23:06:08.388Z,12.20
2022-11-09T23:08:39.150Z,12.30
2022-11-09T23:11:09.210Z,12.30
2022-11-09T23:13:36.299Z,12.40
2022-11-09T23:16:06.103Z,12.40
2022-11-09T23:18:51.868Z,12.40
2022-11-09T23:21:19.936Z,12.40
2022-11-09T23:23:47.081Z,12.40
2022-11-09T23:26:14.149Z,12.30
2022-11-09T23:28:40.982Z,12.10
2022-11-09T23:31:14.369Z,11.90
2022-11-09T23:33:41.814Z,12.00
2022-11-09T23:36:10.107Z,12.10
2022-11-09T23:38:38.990Z,11.90
2022-11-09T23:41:08.115Z,12.20
2022-11-09T23:43:36.094Z,12.30
2022-11-09T23:46:16.587Z,12.40
2022-11-09T23:48:43.536Z,12.50
2022-11-09T23:51:10.783Z,12.50
2022-11-09T23:53:38.329Z,12.20
2022-11-09T23:56:10.543Z,12.10
2022-11-09T23:58:38.043Z,12.20
